This is the latest recevied weather packets stored in our database for station/object KC2TER. If no packets are shown the sender has not sent any weather packets the latest 10 day(s).
| Time | Temp. | Humidity | Pressure | Rain* | Wind** | Luminosity | Snow |
|---|---|---|---|---|---|---|---|
| 1778184243 | 17.78° C | 42% | 1008.1 hPa | 0 mm | - | 497 W/m² | - |
| 1778183938 | 17.78° C | 45% | 1007.9 hPa | 0 mm | - | 523 W/m² | - |
| 1778183636 | 17.78° C | 45% | 1008 hPa | 0 mm | - | 545 W/m² | - |
| 1778183334 | 17.78° C | 42% | 1007.9 hPa | 0 mm | - | 563 W/m² | - |
| 1778183030 | 18.33° C | 45% | 1007.9 hPa | 0 mm | - | 587 W/m² | - |
| 1778182726 | 17.78° C | 44% | 1008.1 hPa | 0 mm | - | 605 W/m² | - |
| 1778182424 | 16.67° C | 48% | 1008.2 hPa | 0 mm | - | 619 W/m² | - |
| 1778182119 | 17.22° C | 45% | 1008.1 hPa | 0 mm | - | 642 W/m² | - |
| 1778181816 | 17.78° C | 47% | 1008.1 hPa | 0 mm | - | 616 W/m² | - |
| 1778181513 | 17.78° C | 44% | 1008 hPa | 0 mm | - | 664 W/m² | - |
| 1778181209 | 17.78° C | 44% | 1008.2 hPa | 0 mm | - | 691 W/m² | - |
| 1778180906 | 17.22° C | 43% | 1008 hPa | 0 mm | - | 703 W/m² | - |
| 1778180604 | 18.33° C | 43% | 1008.2 hPa | 0 mm | - | 723 W/m² | - |
| 1778180303 | 18.33° C | 43% | 1008.5 hPa | 0 mm | - | 733 W/m² | - |
| 1778179999 | 17.22° C | 44% | 1008.3 hPa | 0 mm | - | 793 W/m² | - |
| 1778179696 | 17.78° C | 44% | 1008.3 hPa | 0 mm | - | 840 W/m² | - |
| 1778179394 | 17.78° C | 45% | 1008.6 hPa | 0 mm | - | 804 W/m² | - |
| 1778179091 | 17.78° C | 47% | 1008.8 hPa | 0 mm | - | 796 W/m² | - |
| 1778178788 | 17.78° C | 44% | 1008.6 hPa | 0 mm | - | 828 W/m² | - |
| 1778178485 | 18.89° C | 43% | 1008.6 hPa | 0 mm | - | 817 W/m² | - |
| 1778178180 | 18.89° C | 44% | 1008.7 hPa | 0 mm | - | 836 W/m² | - |
| 1778177877 | 17.78° C | 44% | 1008.7 hPa | 0 mm | - | 847 W/m² | - |
| 1778177573 | 18.89° C | 44% | 1008.6 hPa | 0 mm | - | 871 W/m² | - |
| 1778177270 | 17.78° C | 43% | 1008.8 hPa | 0 mm | - | 861 W/m² | - |
| 1778176967 | 18.33° C | 47% | 1008.8 hPa | 0 mm | - | 864 W/m² | - |
* Rain latest hour (hover to see other rain measurements)
** Current wind speed in m/s (hover to see current wind gust speed)